createdAt,value
2017-05-18T00:01:04.396Z,18.10
2017-05-18T00:03:39.647Z,18.10
2017-05-18T00:06:14.983Z,18.00
2017-05-18T00:08:50.156Z,18.00
2017-05-18T00:11:25.672Z,17.90
2017-05-18T00:14:01.696Z,17.90
2017-05-18T00:16:37.070Z,17.90
2017-05-18T00:19:12.416Z,17.90
2017-05-18T00:21:47.689Z,17.80
2017-05-18T00:24:22.936Z,17.80
2017-05-18T00:26:58.460Z,17.80
2017-05-18T00:29:33.795Z,17.70
2017-05-18T00:32:09.229Z,17.70
2017-05-18T00:34:44.475Z,17.70
2017-05-18T00:37:19.824Z,17.70
2017-05-18T00:39:55.036Z,17.60
2017-05-18T00:42:31.063Z,17.50
2017-05-18T00:45:06.302Z,17.50
2017-05-18T00:47:41.775Z,17.50
2017-05-18T00:50:16.825Z,17.50
2017-05-18T00:52:52.153Z,17.40
2017-05-18T00:55:27.488Z,17.40
2017-05-18T00:58:02.743Z,17.40
2017-05-18T01:00:38.087Z,17.40
2017-05-18T01:03:13.486Z,17.40
2017-05-18T01:05:48.619Z,17.40
2017-05-18T01:08:23.997Z,17.30
2017-05-18T01:10:59.227Z,17.30
2017-05-18T01:13:35.492Z,17.30
2017-05-18T01:16:10.752Z,17.40
2017-05-18T01:18:46.276Z,17.30
2017-05-18T01:21:21.338Z,17.30
2017-05-18T01:23:56.539Z,17.30
2017-05-18T01:26:31.675Z,17.30
2017-05-18T01:29:07.226Z,17.20
2017-05-18T01:31:42.486Z,17.20
2017-05-18T01:34:18.432Z,17.20
2017-05-18T01:36:53.695Z,17.30
2017-05-18T01:39:29.318Z,17.20
2017-05-18T01:42:04.420Z,17.20
2017-05-18T01:44:39.608Z,17.20
2017-05-18T01:47:14.809Z,17.20
2017-05-18T01:49:50.370Z,17.20
2017-05-18T01:52:25.609Z,17.10
2017-05-18T01:55:01.154Z,17.10
2017-05-18T01:57:36.296Z,17.20
2017-05-18T02:00:12.259Z,17.10
2017-05-18T02:02:47.511Z,17.10
2017-05-18T02:05:22.812Z,17.10
2017-05-18T02:07:58.075Z,17.10
2017-05-18T02:10:33.485Z,17.00
2017-05-18T02:13:09.520Z,17.00
2017-05-18T02:15:44.919Z,17.00
2017-05-18T02:18:20.067Z,17.10
2017-05-18T02:23:35.646Z,17.00
2017-05-18T02:26:10.814Z,17.00
2017-05-18T02:28:46.116Z,17.00
2017-05-18T02:31:21.439Z,17.00
2017-05-18T02:33:56.763Z,17.00
2017-05-18T02:36:32.127Z,17.00
2017-05-18T02:39:07.367Z,17.00
2017-05-18T02:41:43.427Z,16.90
2017-05-18T02:44:18.589Z,16.90
2017-05-18T02:46:53.773Z,16.90
2017-05-18T02:49:29.139Z,16.90
2017-05-18T02:52:04.696Z,16.90
2017-05-18T02:54:40.521Z,16.90
2017-05-18T02:57:15.823Z,16.90
2017-05-18T02:59:51.028Z,16.90
2017-05-18T03:02:26.466Z,16.80
2017-05-18T03:05:02.392Z,16.90
2017-05-18T03:07:37.882Z,16.90
2017-05-18T03:10:13.105Z,16.90
2017-05-18T03:12:48.437Z,16.80
2017-05-18T03:15:23.740Z,16.80
2017-05-18T03:17:58.952Z,16.70
2017-05-18T03:20:34.156Z,16.70
2017-05-18T03:23:10.127Z,16.70
2017-05-18T03:25:46.155Z,16.70
2017-05-18T03:28:21.528Z,16.60
2017-05-18T03:30:56.739Z,16.70
2017-05-18T03:33:32.023Z,16.70
2017-05-18T03:36:07.231Z,16.70
2017-05-18T03:38:42.539Z,16.60
2017-05-18T03:41:17.763Z,16.70
2017-05-18T03:43:53.254Z,16.70
2017-05-18T03:46:28.494Z,16.70
2017-05-18T03:49:03.776Z,16.70
2017-05-18T03:51:38.992Z,16.70
2017-05-18T03:54:14.236Z,16.70
2017-05-18T03:56:49.439Z,16.80
2017-05-18T03:59:24.744Z,16.80
2017-05-18T04:01:59.856Z,16.80
2017-05-18T04:04:35.352Z,16.80
2017-05-18T04:07:10.498Z,16.90
2017-05-18T04:09:45.789Z,16.80
2017-05-18T04:12:21.857Z,16.90
2017-05-18T04:14:57.870Z,16.90
2017-05-18T04:17:33.044Z,17.00
2017-05-18T04:20:08.333Z,17.00
2017-05-18T04:22:44.339Z,17.00
2017-05-18T04:25:20.376Z,17.00
2017-05-18T04:27:56.356Z,17.00
2017-05-18T04:30:31.687Z,17.10
2017-05-18T04:33:06.894Z,17.10
2017-05-18T04:35:42.216Z,17.20
2017-05-18T04:38:18.145Z,17.20
2017-05-18T04:40:53.439Z,17.20
2017-05-18T04:43:28.542Z,17.40
2017-05-18T04:46:04.173Z,17.40
2017-05-18T04:48:39.319Z,17.50
2017-05-18T04:51:14.529Z,17.50
2017-05-18T04:53:49.700Z,17.50
2017-05-18T04:56:25.705Z,17.60
2017-05-18T04:59:01.587Z,17.60
2017-05-18T05:01:36.937Z,17.70
2017-05-18T05:04:12.283Z,17.90
2017-05-18T05:06:47.678Z,17.90
2017-05-18T05:09:22.919Z,17.90
2017-05-18T05:11:58.141Z,18.00
2017-05-18T05:14:33.258Z,18.10
2017-05-18T05:17:08.474Z,18.30
2017-05-18T05:19:43.702Z,18.40
2017-05-18T05:22:18.976Z,18.40
2017-05-18T05:24:54.929Z,18.50
2017-05-18T05:27:30.219Z,18.70
2017-05-18T05:30:06.209Z,18.70
2017-05-18T05:32:41.552Z,18.80
2017-05-18T05:35:16.690Z,19.00
2017-05-18T05:37:51.964Z,19.00
2017-05-18T05:40:27.353Z,19.20
2017-05-18T05:43:03.176Z,19.20
2017-05-18T05:45:39.178Z,19.10
2017-05-18T05:48:14.375Z,19.20
2017-05-18T05:50:49.523Z,19.30
2017-05-18T05:53:24.805Z,19.30
2017-05-18T05:56:00.116Z,19.60
2017-05-18T05:58:35.394Z,19.90
2017-05-18T06:01:11.312Z,21.40
2017-05-18T06:03:46.627Z,22.40
2017-05-18T06:06:21.900Z,23.50
2017-05-18T06:08:57.197Z,24.00
2017-05-18T06:11:32.501Z,23.90
2017-05-18T06:14:07.725Z,24.20
2017-05-18T06:16:42.915Z,23.50
2017-05-18T06:19:18.363Z,24.10
2017-05-18T06:21:53.512Z,24.60
2017-05-18T06:24:29.681Z,24.70
2017-05-18T06:27:04.956Z,24.80
2017-05-18T06:29:40.371Z,25.00
2017-05-18T06:32:16.557Z,24.30
2017-05-18T06:34:51.807Z,24.30
2017-05-18T06:37:27.140Z,24.60
2017-05-18T06:40:02.370Z,25.20
2017-05-18T06:42:37.724Z,24.90
2017-05-18T06:45:12.952Z,25.70
2017-05-18T06:47:48.242Z,25.20
2017-05-18T06:50:23.619Z,26.40
2017-05-18T06:52:58.983Z,26.40
2017-05-18T06:55:34.211Z,26.50
2017-05-18T06:58:09.552Z,24.40
2017-05-18T07:00:45.555Z,23.70
2017-05-18T07:03:21.040Z,22.90
2017-05-18T07:05:56.385Z,22.30
2017-05-18T07:08:31.678Z,22.30
2017-05-18T07:11:07.055Z,22.50
2017-05-18T07:13:42.941Z,22.40
2017-05-18T07:16:18.263Z,22.40
2017-05-18T07:18:53.461Z,22.90
2017-05-18T07:21:29.428Z,23.30
2017-05-18T07:24:05.001Z,22.90
2017-05-18T07:26:40.235Z,22.40
2017-05-18T07:29:15.588Z,22.40
2017-05-18T07:31:50.961Z,22.20
2017-05-18T07:34:26.204Z,22.20
2017-05-18T07:37:01.480Z,22.50
2017-05-18T07:39:37.564Z,22.50
2017-05-18T07:42:12.899Z,22.50
2017-05-18T07:44:48.151Z,22.40
2017-05-18T07:47:23.579Z,22.50
2017-05-18T07:49:58.751Z,22.30
2017-05-18T07:52:34.055Z,22.50
2017-05-18T07:55:09.283Z,22.50
2017-05-18T07:57:45.270Z,22.50
2017-05-18T08:00:20.557Z,22.30
2017-05-18T08:02:56.031Z,22.60
2017-05-18T08:05:31.319Z,22.80
2017-05-18T08:08:06.655Z,22.90
2017-05-18T08:10:41.900Z,22.80
2017-05-18T08:13:17.396Z,22.90
2017-05-18T08:15:52.488Z,23.00
2017-05-18T08:18:27.680Z,23.10
2017-05-18T08:21:02.896Z,23.10
2017-05-18T08:23:38.304Z,23.10
2017-05-18T08:26:13.595Z,23.20
2017-05-18T08:28:49.840Z,23.60
2017-05-18T08:31:25.171Z,23.70
2017-05-18T08:34:00.511Z,23.90
2017-05-18T08:36:35.813Z,24.10
2017-05-18T08:39:11.052Z,24.20
2017-05-18T08:41:46.863Z,24.40
2017-05-18T08:44:22.331Z,24.80
2017-05-18T08:46:57.606Z,25.40
2017-05-18T08:49:32.871Z,25.80
2017-05-18T08:52:08.353Z,25.30
2017-05-18T08:54:43.769Z,25.50
2017-05-18T08:57:19.039Z,26.10
2017-05-18T08:59:54.284Z,26.90
2017-05-18T09:02:30.173Z,26.90
2017-05-18T09:05:05.392Z,26.60
2017-05-18T09:07:41.564Z,26.40
2017-05-18T09:10:17.982Z,27.10
2017-05-18T09:12:53.220Z,27.20
2017-05-18T09:15:28.737Z,27.00
2017-05-18T09:18:04.854Z,26.30
2017-05-18T09:20:40.363Z,26.70
2017-05-18T09:23:17.081Z,26.60
2017-05-18T09:25:52.423Z,26.70
2017-05-18T09:28:27.642Z,26.30
2017-05-18T09:31:03.575Z,26.90
2017-05-18T09:33:39.827Z,27.30
2017-05-18T09:36:15.508Z,26.90
2017-05-18T09:38:50.591Z,27.60
2017-05-18T09:41:27.002Z,26.90
2017-05-18T09:44:02.333Z,27.10
2017-05-18T09:46:37.540Z,26.90
2017-05-18T09:49:12.711Z,27.20
2017-05-18T09:51:47.949Z,27.10
2017-05-18T09:54:23.196Z,27.70
2017-05-18T09:56:58.384Z,28.10
2017-05-18T09:59:33.761Z,28.20
2017-05-18T10:02:09.010Z,27.10
2017-05-18T10:04:44.301Z,27.20
2017-05-18T10:07:19.485Z,27.30
2017-05-18T10:09:55.436Z,27.40
2017-05-18T10:15:36.191Z,28.00
2017-05-18T10:18:12.079Z,26.90
2017-05-18T10:20:47.376Z,27.70
2017-05-18T10:23:22.515Z,27.60
2017-05-18T10:25:57.975Z,27.00
2017-05-18T10:28:33.294Z,27.20
2017-05-18T10:31:08.621Z,27.10
2017-05-18T10:33:43.781Z,27.20
2017-05-18T10:36:19.113Z,27.20
2017-05-18T10:38:54.288Z,27.20
2017-05-18T10:41:30.541Z,27.00
2017-05-18T10:44:05.750Z,27.10
2017-05-18T10:46:40.927Z,26.70
2017-05-18T10:49:16.068Z,26.50
2017-05-18T10:51:51.583Z,26.40
2017-05-18T10:54:26.860Z,26.60
2017-05-18T10:57:02.055Z,26.80
2017-05-18T10:59:37.312Z,27.40
2017-05-18T11:02:12.776Z,27.60
2017-05-18T11:04:48.028Z,28.30
2017-05-18T11:07:23.266Z,29.10
2017-05-18T11:09:58.416Z,28.60
2017-05-18T11:12:33.904Z,28.40
2017-05-18T11:15:10.865Z,28.70
2017-05-18T11:17:46.029Z,28.60
2017-05-18T11:20:21.251Z,28.30
2017-05-18T11:22:56.928Z,28.00
2017-05-18T11:25:32.096Z,27.50
2017-05-18T11:31:12.984Z,26.90
2017-05-18T11:33:49.012Z,27.40
2017-05-18T11:36:24.307Z,28.20
2017-05-18T11:38:59.479Z,28.50
2017-05-18T11:41:34.751Z,28.00
2017-05-18T11:44:10.819Z,28.50
2017-05-18T11:46:46.633Z,27.90
2017-05-18T11:49:21.910Z,27.50
2017-05-18T11:51:57.876Z,27.80
2017-05-18T11:54:33.276Z,27.80
2017-05-18T11:57:08.348Z,28.60
2017-05-18T11:59:43.664Z,28.00
2017-05-18T12:02:18.858Z,27.40
2017-05-18T12:04:56.002Z,26.50
2017-05-18T12:07:32.120Z,26.60
2017-05-18T12:10:07.477Z,26.20
2017-05-18T12:12:42.665Z,26.10
2017-05-18T12:15:18.740Z,26.40
2017-05-18T12:17:54.447Z,26.60
2017-05-18T12:20:29.816Z,27.30
2017-05-18T12:23:05.102Z,27.00
2017-05-18T12:25:40.847Z,27.60
2017-05-18T12:28:15.882Z,27.80
2017-05-18T12:30:51.450Z,27.50
2017-05-18T12:33:27.241Z,26.60
2017-05-18T12:36:03.239Z,25.60
2017-05-18T12:38:43.830Z,25.60
2017-05-18T12:41:19.826Z,25.40
2017-05-18T12:43:56.264Z,24.90
2017-05-18T12:46:35.946Z,24.50
2017-05-18T12:49:11.248Z,24.90
2017-05-18T12:51:47.431Z,25.80
2017-05-18T12:54:23.447Z,25.80
2017-05-18T12:56:58.643Z,25.00
2017-05-18T12:59:33.988Z,25.30
2017-05-18T13:02:09.931Z,24.70
2017-05-18T13:04:46.300Z,24.90
2017-05-18T13:07:21.584Z,25.20
2017-05-18T13:09:56.932Z,24.80
2017-05-18T13:12:32.135Z,24.70
2017-05-18T13:15:07.509Z,24.40
2017-05-18T13:17:42.822Z,24.30
2017-05-18T13:20:18.351Z,23.60
2017-05-18T13:22:53.585Z,23.60
2017-05-18T13:25:28.725Z,23.40
2017-05-18T13:28:04.155Z,23.70
2017-05-18T13:30:39.320Z,22.80
2017-05-18T13:33:15.549Z,22.70
2017-05-18T13:35:51.621Z,22.60
2017-05-18T13:38:27.064Z,22.50
2017-05-18T13:41:02.403Z,22.60
2017-05-18T13:43:37.546Z,22.30
2017-05-18T13:46:13.360Z,22.10
2017-05-18T13:48:48.868Z,21.80
2017-05-18T13:51:24.091Z,21.50
2017-05-18T13:54:00.152Z,21.40
2017-05-18T13:56:35.371Z,21.60
2017-05-18T13:59:10.729Z,21.60
2017-05-18T14:01:45.967Z,21.50
2017-05-18T14:04:21.279Z,21.30
2017-05-18T14:06:56.407Z,21.40
2017-05-18T14:09:31.699Z,21.70
2017-05-18T14:12:06.856Z,21.50
2017-05-18T14:14:43.105Z,21.30
2017-05-18T14:17:18.301Z,20.90
2017-05-18T14:19:53.860Z,21.00
2017-05-18T14:22:29.033Z,21.00
2017-05-18T14:25:04.483Z,20.70
2017-05-18T14:27:39.794Z,20.90
2017-05-18T14:30:15.809Z,21.10
2017-05-18T14:32:51.589Z,20.90
2017-05-18T14:35:26.753Z,21.00
2017-05-18T14:38:03.032Z,21.10
2017-05-18T14:40:39.458Z,20.90
2017-05-18T14:43:14.678Z,21.00
2017-05-18T14:45:49.911Z,21.00
2017-05-18T14:48:26.145Z,21.20
2017-05-18T14:51:01.413Z,21.40
2017-05-18T14:53:36.797Z,21.30
2017-05-18T14:56:12.083Z,21.00
2017-05-18T14:58:47.333Z,21.10
2017-05-18T15:01:22.875Z,21.20
2017-05-18T15:03:57.927Z,21.30
2017-05-18T15:06:33.988Z,21.00
2017-05-18T15:09:09.909Z,21.40
2017-05-18T15:11:46.027Z,21.40
2017-05-18T15:14:22.047Z,21.40
2017-05-18T15:16:57.596Z,21.00
2017-05-18T15:19:32.656Z,20.90
2017-05-18T15:22:07.872Z,20.70
2017-05-18T15:24:43.079Z,20.60
2017-05-18T15:27:18.283Z,20.70
2017-05-18T15:29:53.488Z,20.30
2017-05-18T15:32:28.665Z,20.50
2017-05-18T15:35:03.871Z,20.30
2017-05-18T15:37:39.301Z,20.20
2017-05-18T15:40:14.620Z,20.40
2017-05-18T15:42:49.876Z,20.20
2017-05-18T15:45:25.894Z,20.10
2017-05-18T15:48:01.177Z,19.80
2017-05-18T15:50:37.203Z,20.00
2017-05-18T15:53:12.515Z,19.80
2017-05-18T15:55:48.472Z,19.90
2017-05-18T15:58:23.807Z,20.00
2017-05-18T16:00:59.069Z,20.00
2017-05-18T16:03:34.422Z,20.00
2017-05-18T16:06:09.675Z,20.10
2017-05-18T16:08:44.902Z,20.30
2017-05-18T16:11:20.237Z,20.10
2017-05-18T16:13:55.786Z,20.40
2017-05-18T16:16:31.146Z,20.20
2017-05-18T16:19:06.584Z,20.20
2017-05-18T16:21:41.736Z,20.20
2017-05-18T16:24:17.999Z,20.10
2017-05-18T16:26:54.014Z,19.80
2017-05-18T16:29:29.493Z,20.20
2017-05-18T16:32:05.345Z,20.30
2017-05-18T16:34:40.905Z,19.90
2017-05-18T16:37:16.055Z,19.80
2017-05-18T16:39:51.312Z,19.50
2017-05-18T16:42:26.398Z,19.40
2017-05-18T16:45:01.733Z,19.60
2017-05-18T16:47:37.347Z,19.50
2017-05-18T16:50:12.643Z,19.30
2017-05-18T16:55:53.152Z,19.10
2017-05-18T16:58:28.276Z,18.90
2017-05-18T17:01:03.499Z,19.10
2017-05-18T17:03:38.776Z,19.00
2017-05-18T17:06:14.156Z,19.10
2017-05-18T17:08:50.140Z,19.10
2017-05-18T17:11:25.403Z,19.20
2017-05-18T17:14:00.512Z,19.10
2017-05-18T17:16:36.020Z,19.20
2017-05-18T17:19:11.307Z,19.20
2017-05-18T17:21:46.529Z,19.00
2017-05-18T17:24:21.684Z,19.00
2017-05-18T17:26:57.703Z,19.10
2017-05-18T17:29:32.912Z,19.00
2017-05-18T17:32:07.572Z,19.00
2017-05-18T17:34:42.706Z,18.70
2017-05-18T17:37:18.299Z,18.60
2017-05-18T17:39:53.546Z,18.50
2017-05-18T17:42:28.881Z,18.40
2017-05-18T17:45:03.996Z,18.40
2017-05-18T17:47:39.492Z,18.40
2017-05-18T17:50:14.658Z,18.40
2017-05-18T17:52:50.201Z,18.50
2017-05-18T17:55:25.441Z,18.30
2017-05-18T17:58:00.776Z,18.40
2017-05-18T18:00:36.616Z,18.40
2017-05-18T18:03:12.080Z,18.20
2017-05-18T18:05:47.333Z,18.10
2017-05-18T18:08:27.173Z,18.00
2017-05-18T18:11:03.182Z,17.90
2017-05-18T18:13:38.755Z,18.10
2017-05-18T18:16:13.950Z,18.00
2017-05-18T18:18:49.439Z,18.00
2017-05-18T18:21:25.492Z,18.00
2017-05-18T18:24:00.744Z,18.00
2017-05-18T18:26:35.951Z,18.00
2017-05-18T18:29:11.303Z,18.00
2017-05-18T18:31:47.230Z,18.00
2017-05-18T18:34:22.531Z,17.90
2017-05-18T18:36:58.779Z,17.90
2017-05-18T18:39:34.901Z,17.90
2017-05-18T18:42:10.120Z,17.90
2017-05-18T18:44:48.428Z,17.70
2017-05-18T18:47:32.160Z,17.70
2017-05-18T18:50:07.541Z,17.70
2017-05-18T18:52:43.741Z,17.60
2017-05-18T18:55:19.828Z,17.40
2017-05-18T18:57:55.251Z,17.60
2017-05-18T19:00:33.303Z,17.40
2017-05-18T19:03:08.759Z,17.30
2017-05-18T19:05:44.196Z,17.30
2017-05-18T19:08:20.689Z,17.30
2017-05-18T19:10:55.887Z,17.30
2017-05-18T19:13:32.672Z,17.40
2017-05-18T19:16:08.946Z,17.40
2017-05-18T19:18:45.019Z,17.30
2017-05-18T19:21:20.259Z,17.20
2017-05-18T19:23:55.577Z,17.20
2017-05-18T19:26:31.411Z,17.20
2017-05-18T19:29:06.587Z,17.10
2017-05-18T19:31:41.748Z,17.00
2017-05-18T19:34:21.569Z,16.80
2017-05-18T19:36:56.845Z,16.60
2017-05-18T19:39:32.252Z,16.60
2017-05-18T19:42:08.147Z,16.30
2017-05-18T19:44:43.394Z,16.40
2017-05-18T19:47:18.880Z,16.40
2017-05-18T19:49:55.514Z,16.40
2017-05-18T19:52:30.795Z,16.30
2017-05-18T19:55:06.252Z,16.10
2017-05-18T19:57:41.641Z,16.10
2017-05-18T20:00:16.924Z,16.00
2017-05-18T20:02:52.230Z,16.10
2017-05-18T20:05:27.461Z,16.10
2017-05-18T20:08:03.101Z,16.20
2017-05-18T20:10:38.535Z,16.10
2017-05-18T20:13:13.792Z,16.10
2017-05-18T20:15:49.105Z,16.00
2017-05-18T20:18:25.213Z,16.10
2017-05-18T20:21:01.736Z,16.00
2017-05-18T20:23:38.163Z,16.20
2017-05-18T20:26:13.328Z,16.00
2017-05-18T20:28:49.523Z,16.00
2017-05-18T20:31:24.660Z,15.90
2017-05-18T20:33:59.992Z,15.80
2017-05-18T20:36:35.138Z,15.70
2017-05-18T20:39:10.314Z,15.70
2017-05-18T20:41:45.563Z,15.60
2017-05-18T20:44:20.987Z,15.70
2017-05-18T20:46:56.196Z,15.60
2017-05-18T20:49:31.772Z,15.60
2017-05-18T20:52:06.999Z,15.60
2017-05-18T20:54:42.171Z,15.60
2017-05-18T20:57:18.162Z,15.60
2017-05-18T20:59:54.068Z,15.60
2017-05-18T21:02:29.151Z,15.60
2017-05-18T21:05:04.507Z,15.60
2017-05-18T21:07:39.757Z,15.60
2017-05-18T21:10:15.277Z,15.50
2017-05-18T21:12:50.507Z,15.50
2017-05-18T21:15:26.828Z,15.50
2017-05-18T21:18:02.067Z,15.40
2017-05-18T21:20:37.522Z,15.40
2017-05-18T21:23:12.656Z,15.30
2017-05-18T21:25:48.260Z,15.30
2017-05-18T21:28:23.722Z,15.30
2017-05-18T21:30:58.860Z,15.20
2017-05-18T21:33:34.148Z,15.20
2017-05-18T21:36:10.113Z,15.20
2017-05-18T21:38:45.365Z,15.20
2017-05-18T21:41:20.652Z,15.20
2017-05-18T21:43:57.056Z,15.30
2017-05-18T21:46:32.421Z,15.30
2017-05-18T21:49:07.695Z,15.30
2017-05-18T21:51:42.803Z,15.20
2017-05-18T21:54:18.107Z,15.20
2017-05-18T21:56:53.268Z,15.10
2017-05-18T21:59:29.447Z,15.00
2017-05-18T22:05:04.299Z,15.00
2017-05-18T22:07:39.619Z,14.90
2017-05-18T22:10:14.970Z,14.90
2017-05-18T22:20:50.123Z,14.80
2017-05-18T22:23:25.364Z,14.80
2017-05-18T22:26:00.804Z,14.80
2017-05-18T22:31:36.320Z,14.80
2017-05-18T22:37:16.625Z,14.60
2017-05-18T22:39:52.577Z,14.50
2017-05-18T22:42:28.466Z,14.60
2017-05-18T22:45:04.394Z,14.50
2017-05-18T22:47:39.650Z,14.50
2017-05-18T22:50:15.708Z,14.40
2017-05-18T22:52:50.912Z,14.30
2017-05-18T22:55:26.976Z,14.40
2017-05-18T22:58:02.181Z,14.40
2017-05-18T23:00:38.174Z,14.40
2017-05-18T23:03:14.233Z,14.40
2017-05-18T23:05:49.408Z,14.40
2017-05-18T23:08:24.932Z,14.40
2017-05-18T23:10:59.936Z,14.30
2017-05-18T23:13:35.162Z,14.30
2017-05-18T23:16:10.317Z,14.30
2017-05-18T23:18:45.677Z,14.40
2017-05-18T23:21:20.825Z,14.40
2017-05-18T23:23:56.367Z,14.50
2017-05-18T23:26:31.605Z,14.40
2017-05-18T23:29:07.153Z,14.30
2017-05-18T23:31:42.385Z,14.30
2017-05-18T23:34:17.835Z,14.40
2017-05-18T23:36:53.661Z,14.30
2017-05-18T23:39:28.952Z,14.30
2017-05-18T23:45:09.022Z,14.30
2017-05-18T23:47:44.101Z,14.30
2017-05-18T23:50:20.185Z,14.30
2017-05-18T23:56:00.561Z,14.30
2017-05-18T23:58:35.809Z,14.30
